DW9106 Madrid ES current weather conditions

sailwx.info

Wind from 024 at 3 knots gusting 10

Air temperature 24.4° C
Dewpoint 9.2° C

Last reported at 2016-Aug-30 23:45 UTC.
Time now 2016-Aug-31 00:32 UTC

Location: N 40°23' W 003°38'.
View on Google Maps.

See reports from other nearby stations

  
Tides and Currents Weather Stations Pressure Air Temp Water Temp Dewpoint Dewpoint Depression Visibility Wind Speed Wind Dir Waves Ship Positions
date/time (UTC)wind fromknots sea level pressurealtimeterstation pressurevisibilityair tempwater tempwave heightnotes
2016-Aug-30 23:45 024 3 gusting 10 24.4
2016-Aug-30 23:30 086 6 gusting 11 25.6
2016-Aug-30 23:15 046 5 gusting 13 26.1
2016-Aug-30 23:00 028 4 gusting 9 26.1
2016-Aug-30 22:45 051 3 gusting 9 26.1
2016-Aug-30 22:30 040 2 gusting 6 25.6
2016-Aug-30 22:15 261 25.0
2016-Aug-30 22:00 261 25.6
2016-Aug-30 21:45 261 26.1
2016-Aug-30 21:29 261 26.1
2016-Aug-30 21:15 261 26.1
2016-Aug-30 21:00 261 26.7
2016-Aug-30 20:45 261 26.7
2016-Aug-30 20:29 261 27.2
2016-Aug-30 20:14 261 27.8
2016-Aug-30 19:59 261 28.3
2016-Aug-30 19:44 261 28.9
2016-Aug-30 19:29 256 28.9
2016-Aug-30 19:14 256 29.4
2016-Aug-30 18:59 256 30.0
2016-Aug-30 18:44 232 30.6
2016-Aug-30 18:29 259 0 gusting 3 31.7
2016-Aug-30 18:14 242 0 gusting 4 32.2
2016-Aug-30 17:59 211 0 gusting 4 32.8
2016-Aug-30 17:44 220 1 gusting 5 32.8
2016-Aug-30 17:29 194 0 gusting 5 33.3
2016-Aug-30 17:15 252 2 gusting 7 32.8
2016-Aug-30 17:00 302 32.8
2016-Aug-30 16:44 229 2 gusting 6 32.8
2016-Aug-30 16:29 152 1 gusting 6 32.8
2016-Aug-30 16:14 127 0 gusting 6 32.8
2016-Aug-30 15:59 275 1 gusting 4 32.8
2016-Aug-30 15:44 194 1 gusting 7 32.8
2016-Aug-30 15:29 172 0 gusting 6 32.8
2016-Aug-30 15:14 165 0 gusting 4 32.2
2016-Aug-30 14:59 205 0 gusting 8 32.8
2016-Aug-30 14:44 189 3 gusting 6 32.8
2016-Aug-30 14:29 291 2 gusting 6 32.8
2016-Aug-30 14:16 206 1 gusting 5 32.2
2016-Aug-30 13:59 235 2 gusting 6 31.7
2016-Aug-30 13:44 162 31.7
2016-Aug-30 13:29 246 2 gusting 7 31.1
2016-Aug-30 13:14 169 2 gusting 7 30.6
2016-Aug-30 12:59 244 0 gusting 6 30.0
2016-Aug-30 12:44 155 1 gusting 6 29.4
2016-Aug-30 12:29 049 1 gusting 6 27.8
2016-Aug-30 12:14 045 2 gusting 6 28.3
2016-Aug-30 11:59 360 27.8
2016-Aug-30 11:44 073 1 gusting 6 27.8
2016-Aug-30 11:29 090 2 gusting 7 26.1
2016-Aug-30 11:13 141 0 gusting 4 26.1
2016-Aug-30 10:58 166 0 gusting 6 26.1
2016-Aug-30 10:43 111 3 gusting 6 25.0
2016-Aug-30 10:28 082 1 gusting 5 24.4
2016-Aug-30 10:13 074 0 gusting 5 23.9
2016-Aug-30 09:58 047 0 gusting 5 23.3
2016-Aug-30 09:43 071 1 gusting 6 22.8
2016-Aug-30 09:28 091 2 gusting 6 21.1
2016-Aug-30 09:13 033 3 gusting 6 20.6
2016-Aug-30 08:58 052 4 gusting 6 20.0
2016-Aug-30 08:43 035 6 gusting 9 20.0
2016-Aug-30 08:28 059 4 gusting 8 19.4
2016-Aug-30 08:13 021 1 gusting 8 18.9
2016-Aug-30 07:58 078 2 gusting 7 18.9
2016-Aug-30 07:43 024 4 gusting 8 18.3
2016-Aug-30 07:28 040 4 gusting 9 18.3
2016-Aug-30 07:13 056 4 gusting 10 17.8
2016-Aug-30 06:58 053 4 gusting 10 17.8
2016-Aug-30 06:43 042 4 gusting 9 17.8
2016-Aug-30 06:28 053 5 gusting 12 17.8
2016-Aug-30 06:12 076 4 gusting 12 17.8
2016-Aug-30 05:57 071 4 gusting 10 17.8
2016-Aug-30 05:42 042 6 gusting 10 17.8
2016-Aug-30 05:28 067 3 gusting 13 17.8
2016-Aug-30 05:12 049 4 gusting 9 17.8
2016-Aug-30 04:57 050 4 gusting 12 17.8
2016-Aug-30 04:42 064 5 gusting 9 17.8
2016-Aug-30 04:27 051 3 gusting 13 17.8
2016-Aug-30 04:12 062 4 gusting 10 18.3
2016-Aug-30 03:57 078 5 gusting 8 18.3
2016-Aug-30 03:42 084 4 gusting 11 18.3
2016-Aug-30 03:27 073 2 gusting 10 18.3
2016-Aug-30 03:12 034 5 gusting 11 18.3
2016-Aug-30 02:57 046 3 gusting 12 18.9
2016-Aug-30 02:42 072 5 gusting 12 18.9
2016-Aug-30 02:27 080 6 gusting 12 18.9
2016-Aug-30 02:12 016 4 gusting 11 19.4
2016-Aug-30 01:57 053 5 gusting 10 19.4
2016-Aug-30 01:42 044 3 gusting 14 19.4
2016-Aug-30 01:27 038 6 gusting 13 19.4
2016-Aug-30 01:12 065 5 gusting 11 20.0
2016-Aug-30 00:57 058 7 gusting 14 20.0
2016-Aug-30 00:42 072 7 gusting 15 20.0
2016-Aug-30 00:27 049 10 gusting 19 20.6
2016-Aug-30 00:12 044 8 gusting 17 20.6
2016-Aug-29 23:57 069 8 gusting 16 21.1
2016-Aug-29 23:42 075 7 gusting 19 21.1
2016-Aug-29 23:27 051 7 gusting 13 21.7
2016-Aug-29 23:12 086 8 gusting 16 22.2
2016-Aug-29 22:57 036 8 gusting 18 22.2
2016-Aug-29 22:42 061 9 gusting 17 22.8
2016-Aug-29 22:26 052 6 gusting 18 23.3
2016-Aug-29 22:11 020 12 gusting 19 23.9
2016-Aug-29 21:56 066 11 gusting 18 24.4
2016-Aug-29 21:41 055 8 gusting 17 25.6
2016-Aug-29 21:26 032 9 gusting 17 26.1
2016-Aug-29 21:11 028 6 gusting 14 26.7
2016-Aug-29 20:56 051 5 gusting 9 26.7
2016-Aug-29 20:41 053 3 gusting 8 26.7
2016-Aug-29 20:26 045 2 gusting 11 27.2
2016-Aug-29 20:11 067 2 gusting 7 27.8
2016-Aug-29 19:56 060 1 gusting 9 28.3
2016-Aug-29 19:41 012 1 gusting 7 29.4
2016-Aug-29 19:26 266 1 gusting 7 30.6
2016-Aug-29 19:11 276 0 gusting 7 31.1
2016-Aug-29 18:56 250 31.7
2016-Aug-29 18:41 242 32.2
2016-Aug-29 18:26 271 1 gusting 6 32.8
2016-Aug-29 18:11 175 33.3
2016-Aug-29 17:56 230 1 gusting 6 33.3
2016-Aug-29 17:41 246 1 gusting 6 33.3
2016-Aug-29 17:26 242 2 gusting 10 33.9
2016-Aug-29 17:14 257 35.0
2016-Aug-29 16:56 236 1 gusting 6 34.4
2016-Aug-29 16:41 123 0 gusting 4 34.4
2016-Aug-29 16:26 254 1 gusting 10 34.4
2016-Aug-29 16:11 271 2 gusting 6 34.4
2016-Aug-29 15:56 263 2 gusting 8 33.9
2016-Aug-29 15:41 250 3 gusting 10 34.4
2016-Aug-29 15:26 196 0 gusting 6 34.4
2016-Aug-29 15:11 192 34.4
2016-Aug-29 14:56 234 2 gusting 9 33.9
2016-Aug-29 14:41 228 1 gusting 8 34.4
2016-Aug-29 14:26 248 33.9
2016-Aug-29 14:11 195 1 gusting 6 33.9
2016-Aug-29 13:56 271 1 gusting 6 33.3
2016-Aug-29 13:41 278 0 gusting 6 33.3
2016-Aug-29 13:26 271 3 gusting 10 33.3
2016-Aug-29 13:11 187 1 gusting 7 32.8
2016-Aug-29 12:56 198 3 gusting 6 32.2
2016-Aug-29 12:41 180 3 gusting 10 32.8
2016-Aug-29 12:26 331 0 gusting 6 32.2
2016-Aug-29 12:11 169 1 gusting 6 32.2
2016-Aug-29 11:56 080 1 gusting 5 32.2
2016-Aug-29 11:40 124 1 gusting 5 32.2
2016-Aug-29 11:25 110 31.1
2016-Aug-29 11:10 071 30.6
2016-Aug-29 10:55 057 1 gusting 4 30.0
2016-Aug-29 10:40 036 2 gusting 4 29.4
2016-Aug-29 10:25 185 1 gusting 6 28.3
2016-Aug-29 10:10 026 3 gusting 6 28.3
2016-Aug-29 09:55 051 2 gusting 6 27.2
2016-Aug-29 09:40 030 5 gusting 8 27.2
2016-Aug-29 09:25 071 4 gusting 7 27.2
2016-Aug-29 09:10 051 2 gusting 6 26.1
2016-Aug-29 08:55 049 3 gusting 7 25.6
2016-Aug-29 08:40 043 1 gusting 7 24.4
2016-Aug-29 08:25 064 5 gusting 8 24.4
2016-Aug-29 08:10 057 2 gusting 6 23.9
2016-Aug-29 07:54 043 4 gusting 10 23.3
2016-Aug-29 07:39 066 2 gusting 6 23.3
2016-Aug-29 07:24 062 1 gusting 10 22.8
2016-Aug-29 07:09 059 2 gusting 9 22.8
2016-Aug-29 06:54 070 6 gusting 11 22.8
2016-Aug-29 06:39 046 4 gusting 8 22.2
2016-Aug-29 06:24 040 4 gusting 7 22.2
2016-Aug-29 06:09 057 4 gusting 9 22.2
2016-Aug-29 05:54 092 4 gusting 7 22.2
2016-Aug-29 05:39 051 1 gusting 4 22.2
2016-Aug-29 05:24 052 2 gusting 6 22.8
2016-Aug-29 05:09 043 1 gusting 7 22.8
2016-Aug-29 04:54 058 2 gusting 6 22.8
2016-Aug-29 04:39 030 22.2
2016-Aug-29 04:24 030 22.8
2016-Aug-29 04:09 030 22.8
2016-Aug-29 03:54 030 22.8
2016-Aug-29 03:39 030 22.8
2016-Aug-29 03:24 030 23.3
2016-Aug-29 03:09 030 23.9
2016-Aug-29 02:54 029 23.9
2016-Aug-29 02:39 028 0 gusting 4 24.4
2016-Aug-29 02:24 317 23.9
2016-Aug-29 02:08 317 24.4
2016-Aug-29 01:53 317 25.0
2016-Aug-29 01:39 317 25.6
2016-Aug-29 01:23 315 0 gusting 1 24.4
2016-Aug-29 01:08 313 24.4
2016-Aug-29 00:53 313 24.4
2016-Aug-29 00:38 313 25.0
2016-Aug-29 00:23 313 25.0
2016-Aug-29 00:08 313 25.0